Time;durP1;ratioP1;P1;durP2;ratioP2;P2;SDS_P1;SDS_P2;PMS_P1;PMS_P2;Temp;Humidity;BMP_temperature;BMP_pressure;BME280_temperature;BME280_humidity;BME280_pressure;Samples;Min_cycle;Max_cycle;Signal;HPM_P1;HPM_P2
2022/05/03 18:19:05;;;;;;;92.15;15.60;;;;;;;;;;4985721;27;118906;-40
2022/05/03 18:27:19;;;;;;;86.68;15.68;;;;;;;;;;5037130;28;20456;-60
2022/05/03 18:29:46;;;;;;;96.13;15.25;;;;;;;;;;4814782;28;76650;-60
2022/05/03 18:32:13;;;;;;;104.10;15.52;;;;;;;;;;4956553;28;20053;-60
2022/05/03 18:34:40;;;;;;;81.78;14.70;;;;;;;;;;4965508;28;67608;-62
2022/05/03 18:37:07;;;;;;;79.90;14.13;;;;;;;;;;4921978;28;20050;-61
2022/05/03 18:39:34;;;;;;;82.18;14.90;;;;;;;;;;5025810;28;20050;-61
2022/05/03 18:42:01;;;;;;;88.97;14.63;;;;;;;;;;5023638;28;20100;-61
2022/05/03 18:44:29;;;;;;;87.88;13.00;;;;;;;;;;5020360;28;20046;-62
2022/05/03 18:46:55;;;;;;;124.20;13.85;;;;;;;;;;5019410;28;20038;-62
2022/05/03 18:49:22;;;;;;;126.85;15.50;;;;;;;;;;5020235;28;20080;-56
2022/05/03 18:51:49;;;;;;;96.40;12.00;;;;;;;;;;5022240;28;20030;-68
2022/05/03 19:01:49;;;;;;;46.35;12.15;;;;;;;;;;4933488;28;20430;-58
2022/05/03 19:04:16;;;;;;;40.22;11.88;;;;;;;;;;5023400;28;20081;-59
2022/05/03 19:06:42;;;;;;;44.55;11.25;;;;;;;;;;5048429;28;20037;-58
2022/05/03 19:09:09;;;;;;;35.53;10.75;;;;;;;;;;5048828;28;20118;-58
2022/05/03 19:11:35;;;;;;;36.45;10.35;;;;;;;;;;5048103;28;20145;-59
2022/05/03 19:14:02;;;;;;;44.42;9.68;;;;;;;;;;5047982;28;20041;-59
2022/05/03 19:16:29;;;;;;;41.90;9.90;;;;;;;;;;5047915;28;20045;-58
2022/05/03 19:18:56;;;;;;;32.85;8.77;;;;;;;;;;5018442;28;20152;-58
2022/05/03 19:21:22;;;;;;;47.97;11.70;;;;;;;;;;5068567;28;20076;-59
2022/05/03 19:32:03;;;;;;;52.60;14.43;;;;;;;;;;5063432;28;20202;-58
2022/05/03 19:34:33;;;;;;;70.20;13.20;;;;;;;;;;5063594;28;20468;-59
2022/05/03 19:37:01;;;;;;;46.08;13.55;;;;;;;;;;5063722;28;20485;-59
2022/05/03 19:39:27;;;;;;;57.92;13.68;;;;;;;;;;5068310;28;20079;-59
2022/05/03 19:41:57;;;;;;;39.75;10.68;;;;;;;;;;5064214;28;20049;-58
2022/05/03 19:44:24;;;;;;;25.00;9.90;;;;;;;;;;5064364;28;20037;-59
2022/05/03 19:46:50;;;;;;;33.30;9.23;;;;;;;;;;5063471;28;20098;-59
2022/05/03 19:49:17;;;;;;;26.08;8.60;;;;;;;;;;5063684;28;20037;-59
2022/05/03 19:51:44;;;;;;;36.15;9.70;;;;;;;;;;5065352;28;20029;-58
2022/05/03 19:54:11;;;;;;;35.30;9.40;;;;;;;;;;5066869;28;20041;-59
2022/05/03 19:56:38;;;;;;;22.27;7.88;;;;;;;;;;5063347;28;20526;-59
2022/05/03 19:59:05;;;;;;;25.83;8.45;;;;;;;;;;5063552;28;20075;-58
2022/05/03 20:01:32;;;;;;;24.10;8.13;;;;;;;;;;5065151;28;20529;-59
2022/05/03 20:03:59;;;;;;;24.33;8.05;;;;;;;;;;5062529;28;20038;-59
2022/05/03 20:06:25;;;;;;;19.92;7.18;;;;;;;;;;5068241;28;20043;-59
2022/05/03 20:08:52;;;;;;;21.77;7.03;;;;;;;;;;5057862;28;20049;-59
2022/05/03 20:11:18;;;;;;;32.97;8.23;;;;;;;;;;5056156;28;20033;-58
2022/05/03 20:13:45;;;;;;;18.98;6.93;;;;;;;;;;5049926;28;20555;-58
2022/05/03 20:16:13;;;;;;;39.78;8.65;;;;;;;;;;5049727;28;20073;-59
2022/05/03 20:18:39;;;;;;;29.65;8.95;;;;;;;;;;5049936;28;20041;-58
2022/05/03 20:21:06;;;;;;;32.35;9.25;;;;;;;;;;5052361;28;20102;-59
2022/05/03 20:23:33;;;;;;;30.85;9.63;;;;;;;;;;5049697;28;20040;-59
2022/05/03 20:25:59;;;;;;;35.05;9.73;;;;;;;;;;5049737;28;20090;-59
2022/05/03 20:28:28;;;;;;;31.48;10.57;;;;;;;;;;5049763;28;20033;-59
2022/05/03 20:30:57;;;;;;;29.27;9.00;;;;;;;;;;5049757;28;20041;-59
2022/05/03 20:33:24;;;;;;;35.22;10.45;;;;;;;;;;5050066;28;20049;-59
2022/05/03 20:35:50;;;;;;;28.25;10.90;;;;;;;;;;5050019;28;20123;-59
2022/05/03 20:38:17;;;;;;;29.85;10.77;;;;;;;;;;5049033;28;20037;-59
2022/05/03 20:40:43;;;;;;;38.22;10.68;;;;;;;;;;5049424;28;20493;-58
2022/05/03 20:43:10;;;;;;;29.50;10.23;;;;;;;;;;5049427;28;20490;-59
2022/05/03 20:45:37;;;;;;;43.78;12.60;;;;;;;;;;5052353;28;20107;-58
2022/05/03 20:50:49;;;;;;;31.00;11.63;;;;;;;;;;5049299;28;20485;-59
2022/05/03 20:53:15;;;;;;;35.10;11.23;;;;;;;;;;5048906;28;20041;-58
2022/05/03 20:55:43;;;;;;;29.60;10.50;;;;;;;;;;5049541;28;20053;-58
2022/05/03 20:58:09;;;;;;;26.02;9.38;;;;;;;;;;5048889;28;20556;-59
2022/05/03 21:00:36;;;;;;;43.00;11.57;;;;;;;;;;5051366;28;20114;-59
2022/05/03 21:03:03;;;;;;;26.45;10.40;;;;;;;;;;5050482;28;20045;-59
2022/05/03 21:05:29;;;;;;;36.28;11.75;;;;;;;;;;5049215;28;20040;-59
2022/05/03 21:07:56;;;;;;;33.55;10.32;;;;;;;;;;5048748;28;20041;-59
2022/05/03 21:10:22;;;;;;;42.08;12.10;;;;;;;;;;5038542;28;20040;-59
2022/05/03 21:12:49;;;;;;;37.13;11.90;;;;;;;;;;5049959;28;20052;-59
2022/05/03 21:15:16;;;;;;;41.38;11.50;;;;;;;;;;5052827;28;20091;-58
2022/05/03 21:17:43;;;;;;;46.08;11.85;;;;;;;;;;5048524;28;20090;-58
2022/05/03 21:20:10;;;;;;;31.52;11.00;;;;;;;;;;5048762;28;20120;-59
2022/05/03 21:22:36;;;;;;;33.78;11.65;;;;;;;;;;5048833;28;20041;-59
2022/05/03 21:25:05;;;;;;;36.25;12.38;;;;;;;;;;5048080;28;20048;-59
2022/05/03 21:27:32;;;;;;;40.83;12.15;;;;;;;;;;5052058;28;20037;-59
2022/05/03 21:29:58;;;;;;;23.17;9.90;;;;;;;;;;5049659;28;20420;-59
2022/05/03 21:32:25;;;;;;;43.45;11.30;;;;;;;;;;5047745;28;20041;-58
2022/05/03 21:34:52;;;;;;;31.13;10.25;;;;;;;;;;5048898;28;20052;-59
2022/05/03 21:37:20;;;;;;;30.45;10.63;;;;;;;;;;5048535;28;20470;-58
2022/05/03 21:39:49;;;;;;;32.20;10.63;;;;;;;;;;5050009;28;20056;-58
2022/05/03 21:42:16;;;;;;;23.83;8.85;;;;;;;;;;5052127;28;20053;-58
2022/05/03 21:44:43;;;;;;;20.92;9.52;;;;;;;;;;5047673;28;20044;-59
2022/05/03 21:47:10;;;;;;;24.55;9.32;;;;;;;;;;5047901;28;20064;-58
2022/05/03 21:49:36;;;;;;;22.10;7.80;;;;;;;;;;5048134;28;20037;-58
2022/05/03 21:52:03;;;;;;;23.45;8.23;;;;;;;;;;5047801;28;20054;-59
2022/05/03 21:54:30;;;;;;;22.77;8.13;;;;;;;;;;5052313;28;20033;-59
2022/05/03 21:56:56;;;;;;;23.75;6.85;;;;;;;;;;5048940;28;20048;-59
2022/05/03 21:59:23;;;;;;;21.00;6.85;;;;;;;;;;5047357;28;20040;-59
2022/05/03 22:01:49;;;;;;;22.33;6.85;;;;;;;;;;5047665;28;20053;-59
2022/05/03 22:04:16;;;;;;;21.90;7.25;;;;;;;;;;5048007;28;20034;-59
2022/05/03 22:06:42;;;;;;;25.60;7.57;;;;;;;;;;5050022;28;20528;-58
2022/05/03 22:09:10;;;;;;;20.88;6.95;;;;;;;;;;5042236;28;20037;-59
2022/05/03 22:11:36;;;;;;;19.90;6.88;;;;;;;;;;5045982;28;20037;-58
2022/05/03 22:14:03;;;;;;;17.38;5.45;;;;;;;;;;5047327;28;20527;-59
2022/05/03 22:16:30;;;;;;;17.48;5.68;;;;;;;;;;5047729;28;20501;-59
2022/05/03 22:18:56;;;;;;;18.30;6.20;;;;;;;;;;5048082;28;20037;-59
2022/05/03 22:21:23;;;;;;;16.52;5.70;;;;;;;;;;5051815;28;20702;-58
2022/05/03 22:23:50;;;;;;;19.83;6.15;;;;;;;;;;5047612;28;20110;-59
2022/05/03 22:26:16;;;;;;;17.85;6.53;;;;;;;;;;5047277;28;20047;-59
2022/05/03 22:28:43;;;;;;;22.42;6.38;;;;;;;;;;5047395;28;20041;-59
2022/05/03 22:31:10;;;;;;;25.58;6.57;;;;;;;;;;5047185;28;20042;-58
2022/05/03 22:33:36;;;;;;;25.27;6.13;;;;;;;;;;5050575;28;20059;-58
2022/05/03 22:36:03;;;;;;;15.60;5.65;;;;;;;;;;5048955;28;20417;-59
2022/05/03 22:38:30;;;;;;;18.40;5.47;;;;;;;;;;5045451;28;20060;-59
2022/05/03 22:40:57;;;;;;;18.63;5.75;;;;;;;;;;5047129;28;20033;-59
2022/05/03 22:43:23;;;;;;;17.20;5.55;;;;;;;;;;5046886;28;20485;-59
2022/05/03 22:45:50;;;;;;;26.90;6.78;;;;;;;;;;5047782;28;20072;-59
2022/05/03 22:48:16;;;;;;;19.50;5.43;;;;;;;;;;5051402;28;20071;-59
2022/05/03 22:50:43;;;;;;;13.00;5.30;;;;;;;;;;5046995;28;20120;-59
2022/05/03 22:53:10;;;;;;;15.73;5.35;;;;;;;;;;5047270;28;20485;-59
2022/05/03 22:55:37;;;;;;;15.25;5.65;;;;;;;;;;5046834;28;20040;-59
2022/05/03 22:58:04;;;;;;;34.08;6.78;;;;;;;;;;5046844;28;20049;-58
2022/05/03 23:00:30;;;;;;;28.77;6.78;;;;;;;;;;5050881;28;20123;-59
2022/05/03 23:02:57;;;;;;;22.50;5.97;;;;;;;;;;5047971;28;20116;-58
2022/05/03 23:05:24;;;;;;;14.38;5.45;;;;;;;;;;5046893;28;20485;-58
2022/05/03 23:07:51;;;;;;;22.73;6.50;;;;;;;;;;5047137;28;20099;-58
2022/05/03 23:10:17;;;;;;;15.52;6.32;;;;;;;;;;5036218;28;20037;-58
2022/05/03 23:12:44;;;;;;;27.95;7.18;;;;;;;;;;5048803;28;20037;-59
2022/05/03 23:15:11;;;;;;;14.23;5.82;;;;;;;;;;5050051;28;20041;-58
2022/05/03 23:17:38;;;;;;;35.70;7.78;;;;;;;;;;5046854;28;20099;-59
2022/05/03 23:20:05;;;;;;;21.02;6.60;;;;;;;;;;5047016;28;20459;-59
2022/05/03 23:22:31;;;;;;;16.55;6.00;;;;;;;;;;5046763;28;20037;-58
2022/05/03 23:24:58;;;;;;;30.13;7.60;;;;;;;;;;5046260;28;20033;-59
2022/05/03 23:27:24;;;;;;;15.27;6.00;;;;;;;;;;5047046;28;20431;-59
2022/05/03 23:29:51;;;;;;;28.23;7.40;;;;;;;;;;5046763;28;20037;-59
2022/05/03 23:32:18;;;;;;;23.98;7.05;;;;;;;;;;5046344;28;20045;-59
2022/05/03 23:37:31;;;;;;;17.58;6.63;;;;;;;;;;5046938;28;20041;-58
2022/05/03 23:40:02;;;;;;;21.98;6.75;;;;;;;;;;5047454;28;20033;-59
2022/05/03 23:42:29;;;;;;;18.55;6.80;;;;;;;;;;5047585;28;20094;-59
2022/05/03 23:44:56;;;;;;;17.30;7.10;;;;;;;;;;5047114;28;20037;-59
2022/05/03 23:47:22;;;;;;;15.18;6.85;;;;;;;;;;5048122;28;20060;-59
2022/05/03 23:49:49;;;;;;;22.05;6.20;;;;;;;;;;5050193;28;20041;-59
2022/05/03 23:52:16;;;;;;;21.52;6.13;;;;;;;;;;5050881;28;20456;-58
2022/05/03 23:54:42;;;;;;;43.03;8.40;;;;;;;;;;5052911;28;20091;-59
2022/05/03 23:57:09;;;;;;;18.70;6.22;;;;;;;;;;5052666;28;20041;-58
2022/05/03 23:59:35;;;;;;;17.88;5.95;;;;;;;;;;5050274;28;20116;-58
